Cragsmoor, NY (12420)

2:33 AM EDT on August 29, 2015 (GMT -0400)
Ice Caves Mountain | | Change Station
CLOSE
Current Station
Personal Weather Station
Location: Pine Bush, NY
Elevation: 1509 ft
Nearby Weather Stations

Elev 1509 ft 41.66 °N, 74.38 °W | Updated 3 minutes ago

Clear
Clear
58.5 °F
Feels Like 58.5 °F
N
2.2
Wind Variable Wind from NNW

Today
High -- | Low -- °F
--% Chance of Precip.
Yesterday
High -- | Low -- °F
Precip. -- in
6:20 AM 7:36 PM
Full, 100% visible
Pressure 30.20 in
Visibility 10.0 miles
Clouds Clear
Dew Point 51 °F
Humidity 75%
Rainfall 0.00 in
Snow Depth Not available.
UV 0 out of 12
Pollen 10.00 out of 12
Air Quality Not available.
Flu Activity Not available.
METAR KMGJ 290554Z AUTO 00000KT 10SM CLR 13/12 A3020 RMK AO2 SLP225 T01280117 10206 20117 58002 TSNO
Pressure 30.20 in
Visibility 10.0 miles
Clouds Clear
Dew Point 51 °F
Humidity 75%
Rainfall 0.00 in
Snow Depth Not available.
UV 0 out of 12
Pollen 10.00 out of 12
Air Quality Not available.
Flu Activity Not available.
METAR KMGJ 290554Z AUTO 00000KT 10SM CLR 13/12 A3020 RMK AO2 SLP225 T01280117 10206 20117 58002 TSNO

10-Day Weather Forecast

×

Almanac

Astronomy

Aug. 29, 2015 Rise Set
Actual Time
Civil Twilight
Nautical Twilight
Astronomical Twilight
Moon
Length of Visible Light
Length of Day
Tomorrow will be .
, % of the Moon is Illuminated

Today's Extremes

State Highs State Lows

Community

WunderPhotos

Upload Photos

1,850,622 photos uploaded!

WunderBlogs® & News

Nearby

Air Quality

  Air Quality AQ Index Pollutant
Not available.

Snow Depth

Station Depth Elevation

Earthquake Activity

City Distance Mag. Time & Date
Minimum magnitude displayed is 2.5.

Coastal Water Temperatures

Place Temperature

Stations

Nearby Weather Stations

Station Location Temp. Windchill Dew Point Humidity Wind Precip. Elev Updated Type